Time;durP1;ratioP1;P1;durP2;ratioP2;P2;SDS_P1;SDS_P2;PMS_P1;PMS_P2;Temp;Humidity;BMP_temperature;BMP_pressure;BME280_temperature;BME280_humidity;BME280_pressure;Samples;Min_cycle;Max_cycle;Signal;HPM_P1;HPM_P2
2022/09/08 00:00:39;;;;;;;30.05;27.58;;;17.10;99.90;;;;;;5062369;28;20567;-79
2022/09/08 00:03:08;;;;;;;32.33;29.88;;;17.10;99.90;;;;;;5033008;28;20040;-79
2022/09/08 00:05:40;;;;;;;32.15;29.50;;;17.00;99.90;;;;;;5063211;28;20043;-79
2022/09/08 00:08:09;;;;;;;32.65;30.05;;;17.00;99.90;;;;;;5059268;28;20048;-79
2022/09/08 00:10:37;;;;;;;32.00;29.52;;;17.00;99.90;;;;;;5059886;28;20040;-84
2022/09/08 00:13:03;;;;;;;32.60;29.83;;;17.00;99.90;;;;;;5031623;28;20155;-84
2022/09/08 00:15:29;;;;;;;34.10;31.40;;;16.90;99.90;;;;;;5060762;28;20123;-84
2022/09/08 00:17:55;;;;;;;34.72;31.83;;;17.00;99.90;;;;;;5063896;28;20518;-84
2022/09/08 00:20:21;;;;;;;34.88;32.10;;;16.90;99.90;;;;;;5060497;28;20040;-86
2022/09/08 00:22:46;;;;;;;35.15;32.35;;;17.00;99.90;;;;;;5069182;28;20047;-84
2022/09/08 00:25:12;;;;;;;34.00;31.40;;;17.00;99.90;;;;;;5030746;28;20166;-84
2022/09/08 00:27:41;;;;;;;36.00;33.10;;;17.00;99.90;;;;;;5065277;28;20058;-79
2022/09/08 00:30:07;;;;;;;36.03;33.22;;;16.90;99.90;;;;;;5064210;28;20047;-79
2022/09/08 00:32:33;;;;;;;35.22;32.47;;;16.90;99.90;;;;;;5075272;28;20557;-84
2022/09/08 00:35:00;;;;;;;36.53;33.60;;;16.90;99.90;;;;;;5067722;28;20060;-84
2022/09/08 00:37:28;;;;;;;35.97;33.08;;;16.90;99.90;;;;;;5049625;28;20886;-84
2022/09/08 00:39:54;;;;;;;35.58;32.78;;;16.90;99.90;;;;;;5063954;28;20093;-83
2022/09/08 00:42:19;;;;;;;37.22;34.33;;;16.90;99.90;;;;;;5067611;28;20495;-84
2022/09/08 00:44:50;;;;;;;38.40;35.50;;;16.80;99.90;;;;;;5032344;28;20050;-84
2022/09/08 00:47:16;;;;;;;38.58;35.63;;;16.80;99.90;;;;;;5064163;28;20514;-84
2022/09/08 00:50:14;;;;;;;36.88;34.03;;;16.80;99.90;;;;;;5081367;28;20122;-85
2022/09/08 00:52:53;;;;;;;40.15;36.72;;;16.80;99.90;;;;;;5057208;28;20467;-85
2022/09/08 00:55:20;;;;;;;40.70;37.47;;;16.80;99.90;;;;;;5065132;28;20138;-84
2022/09/08 00:57:47;;;;;;;42.90;39.38;;;16.80;99.90;;;;;;5065563;27;20469;-84
2022/09/08 01:00:20;;;;;;;37.67;34.67;;;16.70;99.90;;;;;;5071958;27;20111;-84
2022/09/08 01:02:47;;;;;;;39.80;36.67;;;16.70;99.90;;;;;;5073675;28;20075;-85
2022/09/08 01:05:20;;;;;;;42.13;38.72;;;16.80;99.90;;;;;;5076357;28;20071;-85
2022/09/08 01:14:08;;;;;;;44.17;40.58;;;16.90;99.90;;;;;;4987475;28;20042;-85
2022/09/08 01:16:40;;;;;;;43.38;39.97;;;17.00;99.90;;;;;;4966095;28;20038;-85
2022/09/08 01:19:18;;;;;;;41.45;38.17;;;17.10;99.90;;;;;;5022419;27;20763;-84
2022/09/08 01:21:59;;;;;;;43.70;40.35;;;17.10;99.90;;;;;;5072023;28;20044;-85
2022/09/08 01:24:43;;;;;;;41.92;38.72;;;17.20;99.90;;;;;;5063093;28;20040;-85
2022/09/08 01:27:30;;;;;;;43.75;40.30;;;17.20;99.90;;;;;;5074049;27;20123;-85
2022/09/08 01:30:03;;;;;;;41.33;38.03;;;17.30;99.90;;;;;;5066888;28;20044;-85
2022/09/08 01:32:34;;;;;;;44.63;40.95;;;17.30;99.90;;;;;;5087351;27;20249;-84
2022/09/08 01:35:00;;;;;;;44.15;40.70;;;17.30;99.90;;;;;;5080849;28;20549;-85
2022/09/08 01:37:25;;;;;;;47.00;43.47;;;17.30;99.90;;;;;;5088516;27;20127;-85
2022/09/08 01:39:51;;;;;;;42.83;39.33;;;17.30;99.90;;;;;;5055933;28;20047;-85
2022/09/08 01:42:17;;;;;;;46.25;42.55;;;17.30;99.90;;;;;;5057955;28;20654;-84
2022/09/08 01:44:43;;;;;;;43.13;39.72;;;17.40;99.90;;;;;;5048998;28;20040;-84
2022/09/08 01:47:10;;;;;;;42.72;39.33;;;17.40;99.90;;;;;;5069230;27;20043;-85
2022/09/08 01:49:39;;;;;;;44.72;41.03;;;17.40;99.90;;;;;;5048943;28;20402;-80
2022/09/08 01:52:07;;;;;;;43.13;39.73;;;17.40;99.90;;;;;;5051035;28;20517;-79
2022/09/08 01:54:34;;;;;;;44.67;41.03;;;17.40;99.90;;;;;;5064763;28;20290;-79
2022/09/08 01:57:00;;;;;;;44.13;40.67;;;17.40;99.90;;;;;;5064212;28;20486;-85
2022/09/08 01:59:26;;;;;;;43.28;39.75;;;17.40;99.90;;;;;;5060217;28;20497;-85
2022/09/08 02:01:53;;;;;;;44.40;41.00;;;17.40;99.90;;;;;;5043241;28;20153;-85
2022/09/08 02:04:19;;;;;;;45.83;42.22;;;17.40;99.90;;;;;;5052568;28;20077;-85
2022/09/08 02:06:45;;;;;;;45.60;41.72;;;17.40;99.90;;;;;;5045686;28;20040;-85
2022/09/08 02:09:11;;;;;;;46.33;42.55;;;17.40;99.90;;;;;;5049277;28;20061;-79
2022/09/08 02:11:38;;;;;;;45.20;41.65;;;17.50;99.90;;;;;;5038728;28;20093;-79
2022/09/08 02:14:04;;;;;;;45.05;41.33;;;17.40;99.90;;;;;;5082342;28;20071;-79
2022/09/08 02:16:32;;;;;;;46.28;42.47;;;17.50;99.90;;;;;;5082836;28;20048;-85
2022/09/08 02:18:58;;;;;;;46.42;42.70;;;17.50;99.90;;;;;;5053589;28;20389;-85
2022/09/08 02:21:24;;;;;;;46.50;42.67;;;17.50;99.90;;;;;;5065384;28;20042;-84
2022/09/08 02:23:50;;;;;;;47.67;43.92;;;17.40;99.90;;;;;;5059855;28;20066;-84
2022/09/08 02:26:19;;;;;;;48.92;44.85;;;17.50;99.90;;;;;;5080035;28;20054;-84
2022/09/08 02:28:46;;;;;;;46.60;42.80;;;17.40;99.90;;;;;;5079133;28;20360;-85
2022/09/08 02:31:12;;;;;;;48.67;44.85;;;17.40;99.90;;;;;;5065291;28;20136;-84
2022/09/08 02:33:39;;;;;;;49.30;45.45;;;17.40;99.90;;;;;;5079786;28;20040;-85
2022/09/08 02:36:08;;;;;;;48.63;44.75;;;17.40;99.90;;;;;;5066102;28;20413;-83
2022/09/08 02:38:34;;;;;;;48.97;45.15;;;17.40;99.90;;;;;;5064211;28;20045;-84
2022/09/08 02:41:00;;;;;;;46.38;42.70;;;17.40;99.90;;;;;;5062489;28;20044;-78
2022/09/08 02:43:27;;;;;;;49.17;45.28;;;17.50;99.90;;;;;;5089265;28;20047;-84
2022/09/08 02:46:11;;;;;;;51.47;47.13;;;17.50;99.90;;;;;;5071315;28;20568;-84
2022/09/08 02:48:39;;;;;;;49.55;45.70;;;17.50;99.90;;;;;;5064625;28;20541;-84
2022/09/08 02:51:08;;;;;;;50.28;46.40;;;17.50;99.90;;;;;;5077749;28;20047;-84
2022/09/08 02:53:35;;;;;;;49.95;45.75;;;17.50;99.90;;;;;;5064000;28;21076;-85
2022/09/08 02:56:02;;;;;;;50.15;46.15;;;17.50;99.90;;;;;;5058089;28;20063;-85
2022/09/08 02:58:28;;;;;;;51.05;46.85;;;17.40;99.90;;;;;;5060434;28;20044;-87
2022/09/08 03:00:55;;;;;;;50.88;46.65;;;17.50;99.90;;;;;;5054814;28;20098;-86
2022/09/08 03:03:22;;;;;;;49.22;45.25;;;17.50;99.90;;;;;;5080190;28;20044;-86
2022/09/08 03:05:49;;;;;;;49.40;45.33;;;17.50;99.90;;;;;;5078050;28;20074;-79
2022/09/08 03:08:15;;;;;;;51.38;47.25;;;17.40;99.90;;;;;;5081981;28;20044;-78
2022/09/08 03:10:41;;;;;;;49.53;45.58;;;17.50;99.90;;;;;;5065587;28;20135;-85
2022/09/08 03:13:08;;;;;;;52.60;48.30;;;17.40;99.90;;;;;;5084744;28;20043;-85
2022/09/08 03:15:34;;;;;;;51.80;47.63;;;17.40;99.90;;;;;;5060204;28;20123;-86
2022/09/08 03:18:04;;;;;;;47.17;43.47;;;17.40;99.90;;;;;;5054190;28;20035;-84
2022/09/08 03:20:32;;;;;;;48.78;44.65;;;17.40;99.90;;;;;;5065151;28;20112;-79
2022/09/08 03:22:59;;;;;;;48.15;44.15;;;17.40;99.90;;;;;;5082280;28;20037;-80
2022/09/08 03:25:26;;;;;;;50.55;46.55;;;17.40;99.90;;;;;;5067647;28;20044;-84
2022/09/08 03:27:51;;;;;;;47.80;43.78;;;17.50;99.90;;;;;;5074530;28;20138;-85
2022/09/08 03:30:18;;;;;;;50.53;46.47;;;17.50;99.90;;;;;;5053097;28;20127;-85
2022/09/08 03:32:48;;;;;;;50.55;46.55;;;17.50;99.90;;;;;;5052468;28;20493;-86
2022/09/08 03:35:15;;;;;;;;;;;17.50;99.90;;;;;;5064399;28;20040;-86
2022/09/08 03:37:44;;;;;;;49.97;45.97;;;17.50;99.90;;;;;;5060689;28;19920;-78
2022/09/08 03:40:13;;;;;;;48.27;44.50;;;17.40;99.90;;;;;;5062326;28;20056;-79
2022/09/08 03:42:43;;;;;;;51.28;46.90;;;17.50;99.90;;;;;;5060616;28;20731;-79
2022/09/08 03:45:15;;;;;;;47.87;43.87;;;17.50;99.90;;;;;;5084238;28;20149;-78
2022/09/08 03:47:42;;;;;;;48.53;44.63;;;17.50;99.90;;;;;;5058210;28;20057;-79
2022/09/08 03:50:13;;;;;;;48.17;44.30;;;17.50;99.90;;;;;;5051088;28;20181;-79
2022/09/08 03:52:38;;;;;;;46.30;42.60;;;17.50;99.90;;;;;;5065519;28;20048;-79
2022/09/08 03:55:08;;;;;;;45.83;42.15;;;17.50;99.90;;;;;;5066628;28;20050;-78
2022/09/08 03:57:35;;;;;;;46.25;42.45;;;17.50;99.90;;;;;;5069439;27;20119;-80
2022/09/08 04:00:02;;;;;;;46.90;42.83;;;17.60;99.90;;;;;;5053250;28;20104;-80
2022/09/08 04:02:30;;;;;;;44.22;40.72;;;17.60;99.90;;;;;;5066315;27;20035;-80
2022/09/08 04:04:57;;;;;;;46.85;43.10;;;17.60;99.90;;;;;;5052542;28;20135;-80
2022/09/08 04:07:26;;;;;;;47.45;43.65;;;17.60;99.90;;;;;;5067560;27;20569;-87
2022/09/08 04:09:53;;;;;;;45.22;41.58;;;17.50;99.90;;;;;;5066609;28;20542;-86
2022/09/08 04:12:19;;;;;;;47.38;43.55;;;17.50;99.90;;;;;;5068467;28;20039;-86
2022/09/08 04:14:48;;;;;;;49.10;45.15;;;17.50;99.90;;;;;;5049574;27;20482;-86
2022/09/08 04:17:15;;;;;;;48.80;45.00;;;17.50;99.90;;;;;;5073280;28;20514;-86
2022/09/08 04:19:41;;;;;;;51.13;46.92;;;17.50;99.90;;;;;;5080555;28;20040;-80
2022/09/08 04:22:07;;;;;;;50.40;46.22;;;17.40;99.90;;;;;;5071805;28;20051;-80
2022/09/08 04:24:34;;;;;;;54.35;49.90;;;17.40;99.90;;;;;;5054897;28;20040;-80
2022/09/08 04:27:00;;;;;;;51.55;47.38;;;17.40;99.90;;;;;;5059553;27;20552;-87
2022/09/08 04:29:26;;;;;;;57.35;52.63;;;17.40;99.90;;;;;;5085562;28;20096;-80
2022/09/08 04:31:55;;;;;;;54.53;50.03;;;17.40;99.90;;;;;;5083811;28;20525;-80
2022/09/08 04:34:21;;;;;;;63.45;58.08;;;17.40;99.90;;;;;;5052711;27;20054;-80
2022/09/08 04:36:46;;;;;;;55.10;50.50;;;17.30;99.90;;;;;;5056593;28;20486;-80
2022/09/08 04:39:13;;;;;;;58.60;53.60;;;17.30;99.90;;;;;;5064396;27;20086;-85
2022/09/08 04:41:39;;;;;;;65.80;59.97;;;17.30;99.90;;;;;;5058898;27;20082;-86
2022/09/08 04:44:06;;;;;;;53.08;48.65;;;17.30;99.90;;;;;;5075854;28;20096;-86
2022/09/08 04:46:34;;;;;;;51.30;46.83;;;17.30;99.90;;;;;;5054263;28;20697;-85
2022/09/08 04:49:00;;;;;;;55.05;50.55;;;17.20;99.90;;;;;;5065354;28;20052;-86
2022/09/08 04:51:28;;;;;;;54.50;50.05;;;17.20;99.90;;;;;;5055588;27;20520;-80
2022/09/08 04:53:55;;;;;;;59.58;54.47;;;17.20;99.90;;;;;;5084255;28;20146;-80
2022/09/08 04:56:23;;;;;;;59.15;54.10;;;17.20;99.90;;;;;;5068072;28;20043;-80
2022/09/08 04:58:50;;;;;;;61.47;56.08;;;17.10;99.90;;;;;;5058075;28;20478;-80
2022/09/08 05:01:20;;;;;;;61.33;56.03;;;17.00;99.90;;;;;;5068356;27;20130;-86
2022/09/08 05:03:47;;;;;;;63.85;58.13;;;17.00;99.90;;;;;;5076102;27;20035;-85
2022/09/08 05:06:14;;;;;;;68.90;62.65;;;16.90;99.90;;;;;;5039536;28;20695;-85
2022/09/08 05:08:46;;;;;;;76.57;69.13;;;16.90;99.90;;;;;;5062415;28;20043;-85
2022/09/08 05:11:12;;;;;;;68.55;62.00;;;16.90;99.90;;;;;;5061969;28;20274;-85
2022/09/08 05:13:39;;;;;;;58.50;53.55;;;16.90;99.90;;;;;;5058138;28;20048;-80
2022/09/08 05:16:10;;;;;;;57.08;52.28;;;16.90;99.90;;;;;;5066537;28;20100;-80
2022/09/08 05:18:39;;;;;;;70.68;63.78;;;16.90;99.90;;;;;;5082652;27;20104;-80
2022/09/08 05:21:06;;;;;;;68.53;62.03;;;16.90;99.90;;;;;;5044405;28;20050;-80
2022/09/08 05:23:32;;;;;;;57.92;53.10;;;16.90;99.90;;;;;;5069238;27;20074;-80
2022/09/08 05:26:06;;;;;;;60.38;55.05;;;16.90;99.90;;;;;;5046157;28;20075;-80
2022/09/08 05:28:35;;;;;;;58.75;53.78;;;17.00;99.90;;;;;;5064214;28;20050;-80
2022/09/08 05:31:02;;;;;;;65.30;59.30;;;17.00;99.90;;;;;;5072483;28;20543;-80
2022/09/08 05:33:28;;;;;;;68.88;62.50;;;17.00;99.90;;;;;;5064046;28;20464;-80
2022/09/08 05:35:54;;;;;;;70.00;63.53;;;17.00;99.90;;;;;;5035564;28;20036;-80
2022/09/08 05:38:20;;;;;;;56.38;51.78;;;17.00;99.90;;;;;;5045190;28;20107;-80
2022/09/08 05:40:48;;;;;;;59.85;54.55;;;17.10;99.90;;;;;;5067244;28;20514;-80
2022/09/08 05:43:15;;;;;;;67.05;61.00;;;17.10;99.90;;;;;;5041068;28;20116;-77
2022/09/08 05:45:45;;;;;;;66.93;60.97;;;17.10;99.90;;;;;;5064390;28;20433;-78
2022/09/08 05:48:11;;;;;;;50.63;46.42;;;17.10;99.90;;;;;;5079638;28;20048;-78
2022/09/08 05:50:40;;;;;;;54.53;49.85;;;17.10;99.90;;;;;;5049331;28;20272;-78
2022/09/08 05:53:06;;;;;;;65.07;59.33;;;17.20;99.90;;;;;;5079324;28;20139;-78
2022/09/08 05:55:32;;;;;;;54.95;50.35;;;17.20;99.90;;;;;;5046449;28;20123;-85
2022/09/08 05:57:57;;;;;;;60.28;54.95;;;17.20;99.90;;;;;;5030182;28;20043;-84
2022/09/08 06:00:24;;;;;;;57.40;52.58;;;17.20;99.90;;;;;;5052430;28;20059;-85
2022/09/08 06:02:50;;;;;;;62.45;56.90;;;17.20;99.90;;;;;;5059406;28;20036;-85
2022/09/08 06:05:20;;;;;;;55.70;50.72;;;17.10;99.90;;;;;;5073482;28;20050;-86
2022/09/08 06:07:47;;;;;;;63.08;57.53;;;17.10;99.90;;;;;;5069199;28;20055;-86
2022/09/08 06:10:13;;;;;;;72.90;65.57;;;17.10;99.90;;;;;;5066917;28;20063;-82
2022/09/08 06:12:39;;;;;;;73.53;66.03;;;17.10;99.90;;;;;;5052223;28;20044;-81
2022/09/08 06:15:06;;;;;;;79.72;71.25;;;17.10;99.90;;;;;;5058241;28;20853;-81
2022/09/08 06:17:33;;;;;;;230.52;102.90;;;17.00;99.90;;;;;;5055301;28;20032;-82
2022/09/08 06:20:02;;;;;;;71.38;64.13;;;17.00;99.90;;;;;;5069605;28;20402;-82
2022/09/08 06:22:29;;;;;;;76.03;68.70;;;17.00;99.90;;;;;;5029249;28;20095;-83
2022/09/08 06:24:55;;;;;;;79.25;70.95;;;17.00;99.90;;;;;;5071013;28;20291;-84
2022/09/08 06:27:46;;;;;;;80.53;72.00;;;17.00;99.90;;;;;;5051522;28;20055;-82
2022/09/08 06:30:15;;;;;;;62.97;56.75;;;17.00;99.90;;;;;;5056779;28;20048;-82
2022/09/08 06:33:07;;;;;;;91.97;73.97;;;17.00;99.90;;;;;;5073426;28;20135;-83
2022/09/08 06:35:50;;;;;;;64.82;58.60;;;17.00;99.90;;;;;;5057065;28;20359;-82
2022/09/08 06:38:31;;;;;;;69.45;62.42;;;17.00;99.90;;;;;;5055867;27;20058;-83
2022/09/08 06:41:08;;;;;;;72.85;65.57;;;17.00;99.90;;;;;;5072067;28;20394;-82
2022/09/08 06:44:01;;;;;;;76.35;68.78;;;17.00;99.90;;;;;;5051994;28;22224;-93
2022/09/08 06:46:36;;;;;;;85.25;76.25;;;17.00;99.90;;;;;;5072693;27;20059;-85
2022/09/08 06:49:04;;;;;;;77.75;69.63;;;17.00;99.90;;;;;;5056388;28;20058;-86
2022/09/08 06:51:52;;;;;;;96.07;82.75;;;17.00;99.90;;;;;;5056564;28;20117;-81
2022/09/08 06:54:20;;;;;;;82.93;74.15;;;17.00;99.90;;;;;;5067980;28;20127;-84
2022/09/08 06:57:11;;;;;;;80.10;71.72;;;17.00;99.90;;;;;;5054699;28;20041;-84
2022/09/08 06:59:59;;;;;;;109.03;85.13;;;17.00;99.90;;;;;;5061958;28;20044;-84
2022/09/08 07:02:52;;;;;;;100.40;78.53;;;17.00;99.90;;;;;;5059650;28;20167;-83
2022/09/08 07:05:39;;;;;;;97.05;79.57;;;17.00;99.90;;;;;;5053334;28;20051;-84
2022/09/08 07:08:16;;;;;;;313.30;103.30;;;17.00;99.90;;;;;;5077789;28;20036;-83
2022/09/08 07:10:54;;;;;;;85.63;72.40;;;17.00;99.90;;;;;;5070897;28;20051;-83
2022/09/08 07:13:31;;;;;;;72.55;64.70;;;17.00;99.90;;;;;;5061998;28;20072;-82
2022/09/08 07:16:32;;;;;;;88.13;70.95;;;17.00;99.90;;;;;;5074400;28;20067;-83
2022/09/08 07:19:21;;;;;;;81.55;69.25;;;17.00;99.90;;;;;;5031189;28;20052;-84
2022/09/08 07:22:02;;;;;;;105.95;77.30;;;17.00;99.90;;;;;;5067646;28;20081;-85
2022/09/08 07:24:33;;;;;;;;;;;16.90;99.90;;;;;;5070768;28;20076;-87
2022/09/08 07:27:03;;;;;;;134.00;91.75;;;16.90;99.90;;;;;;5056757;28;20621;-83
2022/09/08 07:29:59;;;;;;;135.07;91.15;;;16.90;99.90;;;;;;5053730;28;20052;-84
2022/09/08 07:32:31;;;;;;;109.72;81.50;;;16.90;99.90;;;;;;5071655;28;20048;-84
2022/09/08 07:35:19;;;;;;;108.15;82.20;;;16.80;99.90;;;;;;5055908;28;20047;-81
2022/09/08 07:37:50;;;;;;;128.32;85.22;;;16.80;99.90;;;;;;5050041;28;20143;-84
2022/09/08 07:40:25;;;;;;;81.68;70.88;;;16.80;99.90;;;;;;5061858;28;20052;-84
2022/09/08 07:42:58;;;;;;;138.48;84.57;;;16.80;99.90;;;;;;5057060;28;20063;-81
2022/09/08 07:45:38;;;;;;;84.45;70.22;;;16.80;99.90;;;;;;5055095;28;20037;-81
2022/09/08 07:48:10;;;;;;;;;;;16.90;99.90;;;;;;5056784;28;20379;-81
2022/09/08 07:50:54;;;;;;;98.40;76.53;;;16.80;99.90;;;;;;5053470;28;19927;-81
2022/09/08 07:53:41;;;;;;;117.57;78.88;;;16.90;99.90;;;;;;5061802;28;20130;-83
2022/09/08 07:56:38;;;;;;;106.32;77.15;;;16.90;99.90;;;;;;5053944;28;20044;-82
2022/09/08 07:59:23;;;;;;;100.35;76.00;;;17.00;99.90;;;;;;5061439;28;20113;-86
2022/09/08 08:02:00;;;;;;;73.57;65.80;;;17.00;99.90;;;;;;5055688;28;20079;-86
2022/09/08 08:05:03;;;;;;;77.93;69.93;;;17.00;99.90;;;;;;5058147;28;20045;-85
2022/09/08 08:07:36;;;;;;;78.70;70.32;;;17.00;99.90;;;;;;5060506;28;20132;-86
2022/09/08 08:10:27;;;;;;;85.25;76.00;;;17.00;99.90;;;;;;5062651;28;20052;-83
2022/09/08 08:13:26;;;;;;;98.72;77.47;;;17.00;99.90;;;;;;5067923;28;20040;-85
2022/09/08 08:16:09;;;;;;;104.70;82.30;;;17.00;99.90;;;;;;5072821;28;20099;-85
2022/09/08 08:19:06;;;;;;;103.80;78.63;;;17.00;99.90;;;;;;5045098;28;20374;-85
2022/09/08 08:21:48;;;;;;;80.95;72.40;;;17.00;99.90;;;;;;5054459;28;20713;-86
2022/09/08 08:24:45;;;;;;;82.05;72.40;;;17.10;99.90;;;;;;5055558;28;20119;-86
2022/09/08 08:27:20;;;;;;;107.95;79.22;;;17.00;99.90;;;;;;5060948;28;20160;-86
2022/09/08 08:30:11;;;;;;;87.03;77.47;;;17.00;99.90;;;;;;5058967;28;20044;-86
2022/09/08 08:32:42;;;;;;;95.60;80.30;;;17.00;99.90;;;;;;5062762;28;20040;-88
2022/09/08 08:35:28;;;;;;;85.60;76.20;;;17.00;99.90;;;;;;5047050;28;20054;-86
2022/09/08 08:37:54;;;;;;;87.15;74.45;;;17.10;99.90;;;;;;5065172;28;20403;-83
2022/09/08 08:40:29;;;;;;;79.95;69.90;;;17.00;99.90;;;;;;5046903;28;20052;-83
2022/09/08 08:43:07;;;;;;;78.82;67.50;;;17.00;99.90;;;;;;5064753;28;20079;-82
2022/09/08 08:45:39;;;;;;;85.18;71.43;;;17.10;99.90;;;;;;5054773;28;20091;-83
2022/09/08 08:48:05;;;;;;;85.47;69.15;;;17.10;99.90;;;;;;5063811;28;20063;-84
2022/09/08 08:50:58;;;;;;;67.32;58.08;;;17.10;99.90;;;;;;5051970;28;20150;-83
2022/09/08 08:53:36;;;;;;;65.15;55.95;;;17.10;99.90;;;;;;5054354;28;20513;-84
2022/09/08 08:56:14;;;;;;;51.75;46.17;;;17.10;99.90;;;;;;5053588;28;20051;-84
2022/09/08 08:59:14;;;;;;;44.28;39.72;;;17.10;99.90;;;;;;5050840;28;20047;-83
2022/09/08 09:01:59;;;;;;;;;;;17.10;99.90;;;;;;5043862;28;20063;-82
2022/09/08 09:04:31;;;;;;;38.20;34.17;;;17.10;99.90;;;;;;5048387;28;19996;-87
2022/09/08 09:07:31;;;;;;;37.80;33.78;;;17.00;99.90;;;;;;5042940;28;20112;-87
2022/09/08 09:10:21;;;;;;;32.92;28.83;;;17.10;99.90;;;;;;5047951;28;20049;-87
2022/09/08 09:12:53;;;;;;;33.47;30.08;;;17.10;99.90;;;;;;5053596;28;20312;-87
2022/09/08 09:15:57;;;;;;;37.05;33.15;;;17.10;99.90;;;;;;5051564;28;20229;-82
2022/09/08 09:18:47;;;;;;;31.75;28.48;;;17.10;99.90;;;;;;5057224;28;20036;-83
2022/09/08 09:22:17;;;;;;;29.88;26.90;;;17.10;99.90;;;;;;5052529;28;20045;-83
2022/09/08 09:25:11;;;;;;;28.10;25.23;;;17.10;99.90;;;;;;4993896;28;20196;-83
2022/09/08 09:28:11;;;;;;;31.42;28.38;;;17.10;99.90;;;;;;4980995;28;20732;-84
2022/09/08 09:30:43;;;;;;;32.67;29.38;;;17.20;99.90;;;;;;5060829;28;20537;-85
2022/09/08 09:33:31;;;;;;;27.95;25.20;;;17.20;99.90;;;;;;5055010;28;20047;-85
2022/09/08 09:36:22;;;;;;;22.20;19.92;;;17.20;99.90;;;;;;5056948;28;20040;-85
2022/09/08 09:39:14;;;;;;;24.25;21.80;;;17.20;99.90;;;;;;5056738;28;20526;-86
2022/09/08 09:41:52;;;;;;;23.83;21.50;;;17.20;99.90;;;;;;5072773;28;20042;-84
2022/09/08 09:44:38;;;;;;;24.70;22.33;;;17.20;99.90;;;;;;5052770;28;20448;-84
2022/09/08 09:47:21;;;;;;;21.98;19.83;;;17.20;99.90;;;;;;5063458;28;20574;-86
2022/09/08 09:50:21;;;;;;;17.70;16.00;;;17.20;99.90;;;;;;5065699;28;20048;-85
2022/09/08 09:53:01;;;;;;;20.83;18.73;;;17.20;99.90;;;;;;5060043;28;20067;-83
2022/09/08 09:55:36;;;;;;;17.30;15.65;;;17.10;99.90;;;;;;5057837;28;20055;-83
2022/09/08 09:58:08;;;;;;;18.33;16.50;;;17.10;99.90;;;;;;5058986;28;20134;-82
2022/09/08 10:01:08;;;;;;;15.00;13.60;;;17.10;99.90;;;;;;5079384;28;20052;-83
2022/09/08 10:04:08;;;;;;;14.95;13.50;;;17.10;99.90;;;;;;5070160;28;20324;-83
2022/09/08 10:07:11;;;;;;;14.90;13.45;;;17.10;99.90;;;;;;5054650;28;20570;-83
2022/09/08 10:09:47;;;;;;;12.30;11.10;;;17.00;99.90;;;;;;5070498;27;20378;-82
2022/09/08 10:12:38;;;;;;;9.90;8.90;;;17.00;99.90;;;;;;5057160;28;20047;-83
2022/09/08 10:15:38;;;;;;;8.88;7.10;;;17.00;99.90;;;;;;5087785;27;20082;-82
2022/09/08 10:18:03;;;;;;;;;;;16.90;99.90;;;;;;5087382;27;20162;-83
2022/09/08 10:20:58;;;;;;;8.60;7.78;;;16.90;99.90;;;;;;5075552;27;19927;-85
2022/09/08 10:24:02;;;;;;;11.60;10.40;;;16.90;99.90;;;;;;5066004;28;20070;-84
2022/09/08 10:27:02;;;;;;;8.80;8.00;;;16.90;99.90;;;;;;5062960;28;20078;-84
2022/09/08 10:29:31;;;;;;;9.13;8.23;;;16.90;99.90;;;;;;5078861;28;20122;-85
2022/09/08 10:32:07;;;;;;;9.88;8.80;;;16.90;99.90;;;;;;5064514;28;20043;-84
2022/09/08 10:34:45;;;;;;;9.80;8.77;;;16.90;99.90;;;;;;5053152;28;20054;-84
2022/09/08 10:37:38;;;;;;;9.48;8.43;;;17.00;99.90;;;;;;5063648;28;20048;-84
2022/09/08 10:40:30;;;;;;;8.68;7.65;;;17.00;99.90;;;;;;5077235;28;20524;-85
2022/09/08 10:43:26;;;;;;;9.70;7.57;;;16.90;99.90;;;;;;5058321;28;20157;-85
2022/09/08 10:46:07;;;;;;;9.15;7.50;;;17.00;99.90;;;;;;5054162;28;20498;-85
2022/09/08 10:48:51;;;;;;;10.65;9.15;;;16.90;99.90;;;;;;5064972;28;20043;-85
2022/09/08 10:51:29;;;;;;;8.65;6.13;;;16.90;99.90;;;;;;5075935;28;20854;-84
2022/09/08 10:54:14;;;;;;;7.13;6.05;;;16.90;99.90;;;;;;5080422;28;20047;-85
2022/09/08 10:56:42;;;;;;;8.77;7.00;;;16.90;99.90;;;;;;5070476;27;20051;-83
2022/09/08 10:59:35;;;;;;;8.57;6.63;;;16.90;99.90;;;;;;5063051;28;20051;-86
2022/09/08 11:02:16;;;;;;;6.88;5.60;;;16.90;99.90;;;;;;5059677;28;20051;-84
2022/09/08 11:05:00;;;;;;;5.78;5.05;;;16.90;99.90;;;;;;5075132;27;20485;-84
2022/09/08 11:07:51;;;;;;;6.50;5.75;;;16.90;99.90;;;;;;5064150;28;20051;-84
2022/09/08 11:10:35;;;;;;;6.70;5.25;;;16.90;99.90;;;;;;5061113;28;20166;-84
2022/09/08 11:13:19;;;;;;;5.60;4.90;;;16.90;99.90;;;;;;5065957;27;20048;-84
2022/09/08 11:15:57;;;;;;;6.15;5.20;;;16.90;99.90;;;;;;5065018;28;20106;-84
2022/09/08 11:18:55;;;;;;;8.20;5.80;;;16.90;99.90;;;;;;5069416;28;20032;-85
2022/09/08 11:21:28;;;;;;;5.60;4.70;;;16.90;99.90;;;;;;5045221;28;20079;-84
2022/09/08 11:24:06;;;;;;;;;;;16.90;99.90;;;;;;5082123;28;20036;-84
2022/09/08 11:26:45;;;;;;;5.90;5.28;;;16.90;99.90;;;;;;5058699;28;20308;-85
2022/09/08 11:29:15;;;;;;;6.68;6.07;;;16.90;99.90;;;;;;5059551;28;20138;-85
2022/09/08 11:31:57;;;;;;;7.15;5.55;;;16.90;99.90;;;;;;5060036;28;20541;-85
2022/09/08 11:34:28;;;;;;;7.28;6.55;;;16.90;99.90;;;;;;5072233;28;20040;-83
2022/09/08 11:37:31;;;;;;;6.38;5.13;;;17.00;99.90;;;;;;5060516;28;20051;-84
2022/09/08 11:40:29;;;;;;;6.05;4.68;;;17.00;99.90;;;;;;5069902;28;20127;-84
2022/09/08 11:43:00;;;;;;;5.50;4.90;;;17.00;99.90;;;;;;5039315;28;20600;-84
2022/09/08 11:45:54;;;;;;;5.25;4.57;;;16.90;99.90;;;;;;5047915;28;20046;-84
2022/09/08 11:48:29;;;;;;;5.82;5.18;;;16.90;99.90;;;;;;5060063;28;20051;-84
2022/09/08 11:51:33;;;;;;;7.57;6.57;;;16.90;99.90;;;;;;5060702;28;20047;-85
2022/09/08 11:54:14;;;;;;;6.07;5.13;;;16.90;99.90;;;;;;5065442;27;20062;-84
2022/09/08 11:57:08;;;;;;;7.15;5.80;;;17.00;99.90;;;;;;5075034;28;20035;-85
2022/09/08 11:59:34;;;;;;;7.30;6.05;;;17.00;99.90;;;;;;5061175;28;20062;-84
2022/09/08 12:02:34;;;;;;;7.20;5.72;;;17.00;99.90;;;;;;5058821;27;20048;-84
2022/09/08 12:05:25;;;;;;;7.38;5.53;;;17.00;99.90;;;;;;5060583;27;20119;-84
2022/09/08 12:08:52;;;;;;;7.93;6.60;;;17.10;99.90;;;;;;5058965;28;20123;-84
2022/09/08 12:11:55;;;;;;;7.07;5.10;;;17.10;99.90;;;;;;5016655;28;20045;-85
2022/09/08 12:15:17;;;;;;;6.15;5.15;;;17.10;99.90;;;;;;5064657;28;20048;-87
2022/09/08 12:17:58;;;;;;;8.52;7.07;;;17.10;99.90;;;;;;5045455;28;20395;-86
2022/09/08 12:20:59;;;;;;;9.13;8.15;;;17.20;99.90;;;;;;5072535;28;20048;-84
2022/09/08 12:24:02;;;;;;;10.23;8.45;;;17.20;99.90;;;;;;5057995;27;20105;-85
2022/09/08 12:26:40;;;;;;;9.38;8.48;;;17.30;99.90;;;;;;5056490;28;20051;-84
2022/09/08 12:29:34;;;;;;;11.23;10.02;;;17.30;99.90;;;;;;5082294;28;20164;-83
2022/09/08 12:32:41;;;;;;;10.82;9.75;;;17.40;99.90;;;;;;5054844;28;20126;-85
2022/09/08 12:35:16;;;;;;;10.02;9.05;;;17.50;99.90;;;;;;5059293;28;20035;-83
2022/09/08 12:38:08;;;;;;;11.77;10.55;;;17.50;99.90;;;;;;5057174;28;20119;-82
2022/09/08 12:40:44;;;;;;;11.95;10.85;;;17.50;99.90;;;;;;5071512;28;20039;-83
2022/09/08 12:43:20;;;;;;;14.65;13.15;;;17.60;99.90;;;;;;5059657;28;20048;-83
2022/09/08 12:46:01;;;;;;;12.30;11.00;;;17.60;99.90;;;;;;5038044;28;20078;-82
2022/09/08 12:49:05;;;;;;;14.75;13.45;;;17.70;99.90;;;;;;5066993;28;20455;-82
2022/09/08 12:51:38;;;;;;;17.27;15.55;;;17.70;99.90;;;;;;5060131;28;20066;-82
2022/09/08 12:54:13;;;;;;;14.93;13.40;;;17.70;99.90;;;;;;5073904;28;20164;-84
2022/09/08 12:56:53;;;;;;;18.48;16.27;;;17.80;99.90;;;;;;5061842;27;20062;-83
2022/09/08 12:59:37;;;;;;;14.77;13.32;;;17.80;99.90;;;;;;5075000;28;20168;-83
2022/09/08 13:02:49;;;;;;;16.10;14.60;;;17.90;99.90;;;;;;5071897;28;20480;-83
2022/09/08 13:05:45;;;;;;;15.68;14.18;;;18.00;99.90;;;;;;5060382;28;20418;-83
2022/09/08 13:08:15;;;;;;;16.15;14.60;;;18.00;99.90;;;;;;5075756;28;20063;-83
2022/09/08 13:10:44;;;;;;;16.65;15.15;;;18.10;99.90;;;;;;5059258;28;20435;-83
2022/09/08 13:13:34;;;;;;;16.33;14.70;;;18.10;99.90;;;;;;5058539;28;20367;-82
2022/09/08 13:16:03;;;;;;;17.92;16.20;;;18.20;99.90;;;;;;5055232;27;20040;-83
2022/09/08 13:18:47;;;;;;;16.65;15.05;;;18.20;99.90;;;;;;5063113;27;20235;-83
2022/09/08 13:21:31;;;;;;;20.10;18.17;;;18.20;99.90;;;;;;5053551;28;20046;-83
2022/09/08 13:24:18;;;;;;;19.58;17.90;;;18.20;99.90;;;;;;5064334;27;20039;-83